Perugia / San Egidio Airport LIRZ

Flugplatz Daten

Name: Perugia / San Egidio Airport

Ident: LIRZ

Lat: 43,09590149

Long: 12,51319981

Platzhöhe: 697 ft

IataCode: PEG

City: Perugia

Metar

2022/08/13 17:20
LIRZ 131720Z AUTO VRB01KT 9999 BKN071/// 26/15 Q1011

Taf

2022/08/13 12:21
TAF LIRZ 131100Z 1312/1412 04010KT 9999 FEW030
BECMG 1318/1320 VRB05KT
Gewünschte Webcam nicht vorhanden? Dann fügen Sie eine hinzu. Sie wird dann so schnell wie möglich freigeschaltet
Url: Title: